sensor_id;sensor_type;location;lat;lon;timestamp;temperature;humidity
10233;DHT22;5161;48.174;11.756;2023-04-24T00:02:08;13.30;83.50
10233;DHT22;5161;48.174;11.756;2023-04-24T00:04:36;13.30;83.10
10233;DHT22;5161;48.174;11.756;2023-04-24T00:07:06;13.30;83.00
10233;DHT22;5161;48.174;11.756;2023-04-24T00:09:32;13.30;83.00
10233;DHT22;5161;48.174;11.756;2023-04-24T00:11:58;13.30;82.80
10233;DHT22;5161;48.174;11.756;2023-04-24T00:14:24;13.40;83.10
10233;DHT22;5161;48.174;11.756;2023-04-24T00:16:50;13.40;83.20
10233;DHT22;5161;48.174;11.756;2023-04-24T00:19:16;13.40;83.40
10233;DHT22;5161;48.174;11.756;2023-04-24T00:21:42;13.40;83.70
10233;DHT22;5161;48.174;11.756;2023-04-24T00:24:07;13.40;83.10
10233;DHT22;5161;48.174;11.756;2023-04-24T00:26:36;13.40;83.20
10233;DHT22;5161;48.174;11.756;2023-04-24T00:29:01;13.40;83.10
10233;DHT22;5161;48.174;11.756;2023-04-24T00:31:27;13.30;83.10
10233;DHT22;5161;48.174;11.756;2023-04-24T00:33:52;13.40;83.50
10233;DHT22;5161;48.174;11.756;2023-04-24T00:36:18;13.40;83.20
10233;DHT22;5161;48.174;11.756;2023-04-24T00:38:45;13.40;83.20
10233;DHT22;5161;48.174;11.756;2023-04-24T00:41:11;13.40;83.30
10233;DHT22;5161;48.174;11.756;2023-04-24T00:43:37;13.40;83.40
10233;DHT22;5161;48.174;11.756;2023-04-24T00:46:03;13.50;83.40
10233;DHT22;5161;48.174;11.756;2023-04-24T00:48:29;13.50;83.30
10233;DHT22;5161;48.174;11.756;2023-04-24T00:50:56;13.40;83.20
10233;DHT22;5161;48.174;11.756;2023-04-24T00:53:22;13.40;83.30
10233;DHT22;5161;48.174;11.756;2023-04-24T00:55:48;13.40;83.50
10233;DHT22;5161;48.174;11.756;2023-04-24T00:58:14;13.40;83.50
10233;DHT22;5161;48.174;11.756;2023-04-24T01:00:40;13.40;83.50
10233;DHT22;5161;48.174;11.756;2023-04-24T01:03:06;13.40;83.50
10233;DHT22;5161;48.174;11.756;2023-04-24T01:05:33;13.40;83.40
10233;DHT22;5161;48.174;11.756;2023-04-24T01:07:59;13.30;83.20
10233;DHT22;5161;48.174;11.756;2023-04-24T01:10:25;13.30;83.30
10233;DHT22;5161;48.174;11.756;2023-04-24T01:12:53;13.30;83.50
10233;DHT22;5161;48.174;11.756;2023-04-24T01:15:18;13.30;83.40
10233;DHT22;5161;48.174;11.756;2023-04-24T01:17:44;13.30;83.20
10233;DHT22;5161;48.174;11.756;2023-04-24T01:20:10;13.30;82.70
10233;DHT22;5161;48.174;11.756;2023-04-24T01:22:36;13.30;82.10
10233;DHT22;5161;48.174;11.756;2023-04-24T01:25:02;13.20;82.10
10233;DHT22;5161;48.174;11.756;2023-04-24T01:27:28;13.10;82.20
10233;DHT22;5161;48.174;11.756;2023-04-24T01:29:54;13.20;82.30
10233;DHT22;5161;48.174;11.756;2023-04-24T01:32:20;13.20;82.00
10233;DHT22;5161;48.174;11.756;2023-04-24T01:34:46;13.20;82.20
10233;DHT22;5161;48.174;11.756;2023-04-24T01:37:12;13.20;82.10
10233;DHT22;5161;48.174;11.756;2023-04-24T01:39:37;13.20;81.60
10233;DHT22;5161;48.174;11.756;2023-04-24T01:42:04;13.10;81.90
10233;DHT22;5161;48.174;11.756;2023-04-24T01:44:30;13.10;82.20
10233;DHT22;5161;48.174;11.756;2023-04-24T01:46:56;13.20;82.20
10233;DHT22;5161;48.174;11.756;2023-04-24T01:49:22;13.20;82.10
10233;DHT22;5161;48.174;11.756;2023-04-24T01:51:49;13.20;81.30
10233;DHT22;5161;48.174;11.756;2023-04-24T01:54:14;13.20;81.90
10233;DHT22;5161;48.174;11.756;2023-04-24T01:56:43;13.20;80.50
10233;DHT22;5161;48.174;11.756;2023-04-24T01:59:10;13.10;80.80
10233;DHT22;5161;48.174;11.756;2023-04-24T02:01:37;13.10;81.10
10233;DHT22;5161;48.174;11.756;2023-04-24T02:04:04;13.10;81.00
10233;DHT22;5161;48.174;11.756;2023-04-24T02:06:29;13.10;80.20
10233;DHT22;5161;48.174;11.756;2023-04-24T02:08:59;13.00;80.20
10233;DHT22;5161;48.174;11.756;2023-04-24T02:11:25;13.10;80.50
10233;DHT22;5161;48.174;11.756;2023-04-24T02:13:51;13.10;80.60
10233;DHT22;5161;48.174;11.756;2023-04-24T02:16:17;13.10;80.10
10233;DHT22;5161;48.174;11.756;2023-04-24T02:18:43;13.10;80.10
10233;DHT22;5161;48.174;11.756;2023-04-24T02:21:10;13.00;80.00
10233;DHT22;5161;48.174;11.756;2023-04-24T02:23:35;13.00;79.20
10233;DHT22;5161;48.174;11.756;2023-04-24T02:26:01;12.90;79.60
10233;DHT22;5161;48.174;11.756;2023-04-24T02:28:26;12.90;79.70
10233;DHT22;5161;48.174;11.756;2023-04-24T02:30:52;12.90;79.60
10233;DHT22;5161;48.174;11.756;2023-04-24T02:33:17;12.80;79.80
10233;DHT22;5161;48.174;11.756;2023-04-24T02:35:43;12.80;79.90
10233;DHT22;5161;48.174;11.756;2023-04-24T02:38:09;12.90;79.60
10233;DHT22;5161;48.174;11.756;2023-04-24T02:40:34;12.80;79.30
10233;DHT22;5161;48.174;11.756;2023-04-24T02:43:00;12.90;80.00
10233;DHT22;5161;48.174;11.756;2023-04-24T02:45:25;12.90;79.50
10233;DHT22;5161;48.174;11.756;2023-04-24T02:47:51;12.80;79.10
10233;DHT22;5161;48.174;11.756;2023-04-24T02:50:17;12.80;79.50
10233;DHT22;5161;48.174;11.756;2023-04-24T02:52:42;12.80;79.30
10233;DHT22;5161;48.174;11.756;2023-04-24T02:55:08;12.80;79.60
10233;DHT22;5161;48.174;11.756;2023-04-24T02:57:34;12.80;79.50
10233;DHT22;5161;48.174;11.756;2023-04-24T02:59:59;12.80;79.10
10233;DHT22;5161;48.174;11.756;2023-04-24T03:02:25;12.70;79.30
10233;DHT22;5161;48.174;11.756;2023-04-24T03:04:51;12.80;79.10
10233;DHT22;5161;48.174;11.756;2023-04-24T03:07:16;12.80;79.50
10233;DHT22;5161;48.174;11.756;2023-04-24T03:09:42;12.80;79.10
10233;DHT22;5161;48.174;11.756;2023-04-24T03:12:07;12.70;79.20
10233;DHT22;5161;48.174;11.756;2023-04-24T03:14:33;12.70;78.90
10233;DHT22;5161;48.174;11.756;2023-04-24T03:16:59;12.60;79.10
10233;DHT22;5161;48.174;11.756;2023-04-24T03:19:25;12.60;79.50
10233;DHT22;5161;48.174;11.756;2023-04-24T03:21:50;12.60;79.70
10233;DHT22;5161;48.174;11.756;2023-04-24T03:24:16;12.60;79.60
10233;DHT22;5161;48.174;11.756;2023-04-24T03:26:41;12.60;79.90
10233;DHT22;5161;48.174;11.756;2023-04-24T03:29:07;12.60;80.10
10233;DHT22;5161;48.174;11.756;2023-04-24T03:31:32;12.50;80.50
10233;DHT22;5161;48.174;11.756;2023-04-24T03:33:58;12.40;80.50
10233;DHT22;5161;48.174;11.756;2023-04-24T03:36:24;12.30;80.40
10233;DHT22;5161;48.174;11.756;2023-04-24T03:38:49;12.20;81.00
10233;DHT22;5161;48.174;11.756;2023-04-24T03:41:15;12.20;81.00
10233;DHT22;5161;48.174;11.756;2023-04-24T03:43:40;12.10;81.00
10233;DHT22;5161;48.174;11.756;2023-04-24T03:46:06;12.10;81.30
10233;DHT22;5161;48.174;11.756;2023-04-24T03:48:34;12.10;80.80
10233;DHT22;5161;48.174;11.756;2023-04-24T03:51:00;12.20;80.80
10233;DHT22;5161;48.174;11.756;2023-04-24T03:53:25;12.20;81.20
10233;DHT22;5161;48.174;11.756;2023-04-24T03:55:52;12.20;81.30
10233;DHT22;5161;48.174;11.756;2023-04-24T03:58:18;12.30;82.30
10233;DHT22;5161;48.174;11.756;2023-04-24T04:00:44;12.20;81.10
10233;DHT22;5161;48.174;11.756;2023-04-24T04:03:09;12.30;81.20
10233;DHT22;5161;48.174;11.756;2023-04-24T04:05:35;12.30;81.20
10233;DHT22;5161;48.174;11.756;2023-04-24T04:08:01;12.30;81.30
10233;DHT22;5161;48.174;11.756;2023-04-24T04:10:26;12.20;81.50
10233;DHT22;5161;48.174;11.756;2023-04-24T04:12:52;12.20;82.30
10233;DHT22;5161;48.174;11.756;2023-04-24T04:15:17;12.20;81.80
10233;DHT22;5161;48.174;11.756;2023-04-24T04:17:45;12.20;81.80
10233;DHT22;5161;48.174;11.756;2023-04-24T04:20:11;12.20;82.70
10233;DHT22;5161;48.174;11.756;2023-04-24T04:22:37;12.20;82.50
10233;DHT22;5161;48.174;11.756;2023-04-24T04:25:03;12.30;82.00
10233;DHT22;5161;48.174;11.756;2023-04-24T04:27:30;12.30;82.00
10233;DHT22;5161;48.174;11.756;2023-04-24T04:29:58;12.30;82.00
10233;DHT22;5161;48.174;11.756;2023-04-24T04:32:28;12.30;82.10
10233;DHT22;5161;48.174;11.756;2023-04-24T04:34:54;12.30;82.00
10233;DHT22;5161;48.174;11.756;2023-04-24T04:37:19;12.20;81.80
10233;DHT22;5161;48.174;11.756;2023-04-24T04:39:45;12.20;82.10
10233;DHT22;5161;48.174;11.756;2023-04-24T04:42:10;12.30;82.10
10233;DHT22;5161;48.174;11.756;2023-04-24T04:44:36;12.20;82.10
10233;DHT22;5161;48.174;11.756;2023-04-24T04:47:02;12.20;82.30
10233;DHT22;5161;48.174;11.756;2023-04-24T04:49:31;12.20;82.30
10233;DHT22;5161;48.174;11.756;2023-04-24T04:51:56;12.20;82.60
10233;DHT22;5161;48.174;11.756;2023-04-24T04:54:22;12.20;82.40
10233;DHT22;5161;48.174;11.756;2023-04-24T04:56:50;12.20;82.40
10233;DHT22;5161;48.174;11.756;2023-04-24T04:59:49;12.10;82.80
10233;DHT22;5161;48.174;11.756;2023-04-24T05:02:41;12.10;81.50
10233;DHT22;5161;48.174;11.756;2023-04-24T05:05:07;12.10;81.60
10233;DHT22;5161;48.174;11.756;2023-04-24T05:07:34;12.10;82.10
10233;DHT22;5161;48.174;11.756;2023-04-24T05:09:59;12.20;82.60
10233;DHT22;5161;48.174;11.756;2023-04-24T05:12:25;12.20;82.60
10233;DHT22;5161;48.174;11.756;2023-04-24T05:14:50;12.30;82.20
10233;DHT22;5161;48.174;11.756;2023-04-24T05:17:16;12.20;82.10
10233;DHT22;5161;48.174;11.756;2023-04-24T05:19:42;12.30;82.50
10233;DHT22;5161;48.174;11.756;2023-04-24T05:22:08;12.30;82.00
10233;DHT22;5161;48.174;11.756;2023-04-24T05:24:35;12.20;82.10
10233;DHT22;5161;48.174;11.756;2023-04-24T05:27:04;12.20;82.10
10233;DHT22;5161;48.174;11.756;2023-04-24T05:29:31;12.10;80.60
10233;DHT22;5161;48.174;11.756;2023-04-24T05:31:57;12.10;82.40
10233;DHT22;5161;48.174;11.756;2023-04-24T05:34:23;12.10;82.30
10233;DHT22;5161;48.174;11.756;2023-04-24T05:36:49;12.00;82.10
10233;DHT22;5161;48.174;11.756;2023-04-24T05:39:16;12.10;82.60
10233;DHT22;5161;48.174;11.756;2023-04-24T05:41:41;12.00;82.50
10233;DHT22;5161;48.174;11.756;2023-04-24T05:44:12;12.10;82.10
10233;DHT22;5161;48.174;11.756;2023-04-24T05:46:40;12.00;82.30
10233;DHT22;5161;48.174;11.756;2023-04-24T05:49:15;12.00;82.50
10233;DHT22;5161;48.174;11.756;2023-04-24T05:51:41;11.90;81.90
10233;DHT22;5161;48.174;11.756;2023-04-24T05:54:07;11.80;81.60
10233;DHT22;5161;48.174;11.756;2023-04-24T05:56:32;11.80;82.10
10233;DHT22;5161;48.174;11.756;2023-04-24T05:58:58;11.90;82.50
10233;DHT22;5161;48.174;11.756;2023-04-24T06:01:24;11.90;81.40
10233;DHT22;5161;48.174;11.756;2023-04-24T06:03:50;11.90;82.20
10233;DHT22;5161;48.174;11.756;2023-04-24T06:06:16;11.90;82.40
10233;DHT22;5161;48.174;11.756;2023-04-24T06:08:41;11.90;82.00
10233;DHT22;5161;48.174;11.756;2023-04-24T06:11:09;11.80;82.10
10233;DHT22;5161;48.174;11.756;2023-04-24T06:13:35;11.90;82.40
10233;DHT22;5161;48.174;11.756;2023-04-24T06:16:00;11.90;82.30
10233;DHT22;5161;48.174;11.756;2023-04-24T06:18:26;12.00;82.10
10233;DHT22;5161;48.174;11.756;2023-04-24T06:20:52;12.10;81.60
10233;DHT22;5161;48.174;11.756;2023-04-24T06:23:18;12.00;81.80
10233;DHT22;5161;48.174;11.756;2023-04-24T06:25:43;12.00;81.50
10233;DHT22;5161;48.174;11.756;2023-04-24T06:28:09;12.00;82.00
10233;DHT22;5161;48.174;11.756;2023-04-24T06:30:34;12.00;81.40
10233;DHT22;5161;48.174;11.756;2023-04-24T06:33:00;11.90;82.00
10233;DHT22;5161;48.174;11.756;2023-04-24T06:35:25;11.90;82.50
10233;DHT22;5161;48.174;11.756;2023-04-24T06:37:51;12.00;82.00
10233;DHT22;5161;48.174;11.756;2023-04-24T06:40:17;12.00;81.90
10233;DHT22;5161;48.174;11.756;2023-04-24T06:42:44;12.10;82.10
10233;DHT22;5161;48.174;11.756;2023-04-24T06:45:10;12.10;82.30
10233;DHT22;5161;48.174;11.756;2023-04-24T06:47:36;12.20;81.60
10233;DHT22;5161;48.174;11.756;2023-04-24T06:50:01;12.20;81.40
10233;DHT22;5161;48.174;11.756;2023-04-24T06:52:29;12.20;81.40
10233;DHT22;5161;48.174;11.756;2023-04-24T06:55:04;12.30;81.60
10233;DHT22;5161;48.174;11.756;2023-04-24T06:57:30;12.20;81.60
10233;DHT22;5161;48.174;11.756;2023-04-24T06:59:56;12.20;80.80
10233;DHT22;5161;48.174;11.756;2023-04-24T07:02:22;12.20;80.80
10233;DHT22;5161;48.174;11.756;2023-04-24T07:04:47;12.20;81.20
10233;DHT22;5161;48.174;11.756;2023-04-24T07:07:13;12.30;80.70
10233;DHT22;5161;48.174;11.756;2023-04-24T07:09:42;12.30;80.30
10233;DHT22;5161;48.174;11.756;2023-04-24T07:12:09;12.40;80.60
10233;DHT22;5161;48.174;11.756;2023-04-24T07:14:36;12.30;80.10
10233;DHT22;5161;48.174;11.756;2023-04-24T07:17:05;12.40;80.50
10233;DHT22;5161;48.174;11.756;2023-04-24T07:19:32;12.40;79.60
10233;DHT22;5161;48.174;11.756;2023-04-24T07:21:58;12.40;80.20
10233;DHT22;5161;48.174;11.756;2023-04-24T07:24:25;12.50;80.00
10233;DHT22;5161;48.174;11.756;2023-04-24T07:26:52;12.40;80.10
10233;DHT22;5161;48.174;11.756;2023-04-24T07:29:18;12.40;79.50
10233;DHT22;5161;48.174;11.756;2023-04-24T07:31:45;12.50;80.30
10233;DHT22;5161;48.174;11.756;2023-04-24T07:34:10;12.50;79.30
10233;DHT22;5161;48.174;11.756;2023-04-24T07:36:36;12.40;78.70
10233;DHT22;5161;48.174;11.756;2023-04-24T07:39:06;12.50;79.30
10233;DHT22;5161;48.174;11.756;2023-04-24T07:41:32;12.40;78.20
10233;DHT22;5161;48.174;11.756;2023-04-24T07:43:58;12.40;79.00
10233;DHT22;5161;48.174;11.756;2023-04-24T07:46:24;12.50;79.60
10233;DHT22;5161;48.174;11.756;2023-04-24T07:48:50;12.50;78.70
10233;DHT22;5161;48.174;11.756;2023-04-24T07:51:15;12.50;78.40
10233;DHT22;5161;48.174;11.756;2023-04-24T07:53:42;12.60;79.00
10233;DHT22;5161;48.174;11.756;2023-04-24T07:56:08;12.70;78.60
10233;DHT22;5161;48.174;11.756;2023-04-24T07:58:34;12.60;78.70
10233;DHT22;5161;48.174;11.756;2023-04-24T08:00:59;12.60;78.60
10233;DHT22;5161;48.174;11.756;2023-04-24T08:03:25;12.60;77.70
10233;DHT22;5161;48.174;11.756;2023-04-24T08:05:50;12.60;78.00
10233;DHT22;5161;48.174;11.756;2023-04-24T08:08:16;12.70;77.30
10233;DHT22;5161;48.174;11.756;2023-04-24T08:10:43;12.70;77.70
10233;DHT22;5161;48.174;11.756;2023-04-24T08:13:09;12.70;77.70
10233;DHT22;5161;48.174;11.756;2023-04-24T08:15:36;12.80;77.20
10233;DHT22;5161;48.174;11.756;2023-04-24T08:18:02;12.80;77.30
10233;DHT22;5161;48.174;11.756;2023-04-24T08:20:27;12.80;77.30
10233;DHT22;5161;48.174;11.756;2023-04-24T08:22:53;12.90;77.70
10233;DHT22;5161;48.174;11.756;2023-04-24T08:25:19;12.90;76.60
10233;DHT22;5161;48.174;11.756;2023-04-24T08:27:45;12.80;76.30
10233;DHT22;5161;48.174;11.756;2023-04-24T08:30:11;12.80;77.10
10233;DHT22;5161;48.174;11.756;2023-04-24T08:32:37;12.90;77.20
10233;DHT22;5161;48.174;11.756;2023-04-24T08:35:03;13.00;76.80
10233;DHT22;5161;48.174;11.756;2023-04-24T08:37:29;13.00;77.10
10233;DHT22;5161;48.174;11.756;2023-04-24T08:39:55;13.00;76.80
10233;DHT22;5161;48.174;11.756;2023-04-24T08:42:21;12.90;76.20
10233;DHT22;5161;48.174;11.756;2023-04-24T08:44:48;12.90;76.90
10233;DHT22;5161;48.174;11.756;2023-04-24T08:47:15;12.80;76.70
10233;DHT22;5161;48.174;11.756;2023-04-24T08:49:41;12.80;77.10
10233;DHT22;5161;48.174;11.756;2023-04-24T08:52:08;12.70;77.80
10233;DHT22;5161;48.174;11.756;2023-04-24T08:54:35;12.70;78.20
10233;DHT22;5161;48.174;11.756;2023-04-24T08:57:01;12.60;79.10
10233;DHT22;5161;48.174;11.756;2023-04-24T08:59:28;12.40;80.80
10233;DHT22;5161;48.174;11.756;2023-04-24T09:01:56;12.40;80.40
10233;DHT22;5161;48.174;11.756;2023-04-24T09:04:23;12.50;80.30
10233;DHT22;5161;48.174;11.756;2023-04-24T09:06:50;12.50;80.10
10233;DHT22;5161;48.174;11.756;2023-04-24T09:09:17;12.50;77.80
10233;DHT22;5161;48.174;11.756;2023-04-24T09:11:46;12.50;76.30
10233;DHT22;5161;48.174;11.756;2023-04-24T09:14:13;12.60;77.10
10233;DHT22;5161;48.174;11.756;2023-04-24T09:16:39;12.60;76.20
10233;DHT22;5161;48.174;11.756;2023-04-24T09:19:05;12.60;76.50
10233;DHT22;5161;48.174;11.756;2023-04-24T09:21:35;12.70;75.60
10233;DHT22;5161;48.174;11.756;2023-04-24T09:24:03;12.60;73.10
10233;DHT22;5161;48.174;11.756;2023-04-24T09:26:36;12.50;72.40
10233;DHT22;5161;48.174;11.756;2023-04-24T09:29:03;12.50;73.60
10233;DHT22;5161;48.174;11.756;2023-04-24T09:31:30;12.60;74.70
10233;DHT22;5161;48.174;11.756;2023-04-24T09:34:00;12.60;74.00
10233;DHT22;5161;48.174;11.756;2023-04-24T09:36:31;12.70;74.40
10233;DHT22;5161;48.174;11.756;2023-04-24T09:39:04;12.80;73.10
10233;DHT22;5161;48.174;11.756;2023-04-24T09:41:31;12.80;73.00
10233;DHT22;5161;48.174;11.756;2023-04-24T09:44:10;12.60;72.10
10233;DHT22;5161;48.174;11.756;2023-04-24T09:46:36;12.70;72.90
10233;DHT22;5161;48.174;11.756;2023-04-24T09:49:15;12.70;73.20
10233;DHT22;5161;48.174;11.756;2023-04-24T09:51:42;12.80;73.60
10233;DHT22;5161;48.174;11.756;2023-04-24T09:54:17;12.80;73.20
10233;DHT22;5161;48.174;11.756;2023-04-24T09:56:44;12.90;72.70
10233;DHT22;5161;48.174;11.756;2023-04-24T09:59:11;12.90;71.40
10233;DHT22;5161;48.174;11.756;2023-04-24T10:01:36;12.90;71.50
10233;DHT22;5161;48.174;11.756;2023-04-24T10:04:04;12.90;71.70
10233;DHT22;5161;48.174;11.756;2023-04-24T10:06:36;13.00;72.10
10233;DHT22;5161;48.174;11.756;2023-04-24T10:09:02;13.00;71.60
10233;DHT22;5161;48.174;11.756;2023-04-24T10:11:29;13.00;71.20
10233;DHT22;5161;48.174;11.756;2023-04-24T10:13:56;13.10;71.10
10233;DHT22;5161;48.174;11.756;2023-04-24T10:16:23;13.10;70.60
10233;DHT22;5161;48.174;11.756;2023-04-24T10:18:49;13.10;70.70
10233;DHT22;5161;48.174;11.756;2023-04-24T10:21:17;13.20;70.60
10233;DHT22;5161;48.174;11.756;2023-04-24T10:23:42;13.20;70.70
10233;DHT22;5161;48.174;11.756;2023-04-24T10:26:13;13.10;70.20
10233;DHT22;5161;48.174;11.756;2023-04-24T10:28:46;13.20;70.70
10233;DHT22;5161;48.174;11.756;2023-04-24T10:31:14;13.30;71.20
10233;DHT22;5161;48.174;11.756;2023-04-24T10:33:42;13.30;71.40
10233;DHT22;5161;48.174;11.756;2023-04-24T10:36:09;13.40;70.70
10233;DHT22;5161;48.174;11.756;2023-04-24T10:38:37;13.50;70.10
10233;DHT22;5161;48.174;11.756;2023-04-24T10:41:08;13.40;69.10
10233;DHT22;5161;48.174;11.756;2023-04-24T10:43:35;13.30;70.10
10233;DHT22;5161;48.174;11.756;2023-04-24T10:46:02;13.40;69.80
10233;DHT22;5161;48.174;11.756;2023-04-24T10:48:28;13.50;70.00
10233;DHT22;5161;48.174;11.756;2023-04-24T10:50:54;13.50;70.50
10233;DHT22;5161;48.174;11.756;2023-04-24T10:53:25;13.60;69.80
10233;DHT22;5161;48.174;11.756;2023-04-24T10:56:06;13.60;69.70
10233;DHT22;5161;48.174;11.756;2023-04-24T10:58:40;13.70;70.00
10233;DHT22;5161;48.174;11.756;2023-04-24T11:01:06;13.60;69.60
10233;DHT22;5161;48.174;11.756;2023-04-24T11:03:34;13.60;68.80
10233;DHT22;5161;48.174;11.756;2023-04-24T11:06:05;13.60;68.40
10233;DHT22;5161;48.174;11.756;2023-04-24T11:13:27;13.00;72.00
10233;DHT22;5161;48.174;11.756;2023-04-24T11:16:21;12.70;72.40
10233;DHT22;5161;48.174;11.756;2023-04-24T11:24:27;12.50;73.30
10233;DHT22;5161;48.174;11.756;2023-04-24T11:26:58;12.50;74.50
10233;DHT22;5161;48.174;11.756;2023-04-24T11:37:34;12.90;75.00
10233;DHT22;5161;48.174;11.756;2023-04-24T11:40:00;13.10;75.20
10233;DHT22;5161;48.174;11.756;2023-04-24T11:42:26;13.10;75.20
10233;DHT22;5161;48.174;11.756;2023-04-24T11:44:53;13.20;75.80
10233;DHT22;5161;48.174;11.756;2023-04-24T11:47:27;13.30;75.00
10233;DHT22;5161;48.174;11.756;2023-04-24T11:49:53;13.30;75.50
10233;DHT22;5161;48.174;11.756;2023-04-24T11:52:19;13.30;74.80
10233;DHT22;5161;48.174;11.756;2023-04-24T11:54:49;13.20;74.90
10233;DHT22;5161;48.174;11.756;2023-04-24T11:57:15;13.40;75.60
10233;DHT22;5161;48.174;11.756;2023-04-24T11:59:41;13.50;75.10
10233;DHT22;5161;48.174;11.756;2023-04-24T12:02:06;13.50;75.20
10233;DHT22;5161;48.174;11.756;2023-04-24T12:04:41;13.60;74.50
10233;DHT22;5161;48.174;11.756;2023-04-24T12:07:07;13.60;74.30
10233;DHT22;5161;48.174;11.756;2023-04-24T12:09:47;13.60;72.70
10233;DHT22;5161;48.174;11.756;2023-04-24T12:12:14;13.70;73.40
10233;DHT22;5161;48.174;11.756;2023-04-24T12:14:53;13.80;72.90
10233;DHT22;5161;48.174;11.756;2023-04-24T12:17:28;14.00;73.60
10233;DHT22;5161;48.174;11.756;2023-04-24T12:19:58;14.10;72.80
10233;DHT22;5161;48.174;11.756;2023-04-24T12:22:24;14.20;72.50
10233;DHT22;5161;48.174;11.756;2023-04-24T12:25:03;14.20;72.20
10233;DHT22;5161;48.174;11.756;2023-04-24T12:27:33;14.30;72.00
10233;DHT22;5161;48.174;11.756;2023-04-24T12:30:03;14.20;71.30
10233;DHT22;5161;48.174;11.756;2023-04-24T12:32:29;14.30;72.40
10233;DHT22;5161;48.174;11.756;2023-04-24T12:34:55;14.30;71.80
10233;DHT22;5161;48.174;11.756;2023-04-24T12:37:23;14.40;71.50
10233;DHT22;5161;48.174;11.756;2023-04-24T12:40:07;14.50;71.60
10233;DHT22;5161;48.174;11.756;2023-04-24T12:42:34;14.50;70.60
10233;DHT22;5161;48.174;11.756;2023-04-24T12:45:01;14.50;71.10
10233;DHT22;5161;48.174;11.756;2023-04-24T12:47:27;14.50;70.70
10233;DHT22;5161;48.174;11.756;2023-04-24T12:49:53;14.50;70.10
10233;DHT22;5161;48.174;11.756;2023-04-24T12:52:24;14.50;69.60
10233;DHT22;5161;48.174;11.756;2023-04-24T12:54:53;14.60;69.70
10233;DHT22;5161;48.174;11.756;2023-04-24T12:57:19;14.60;70.20
10233;DHT22;5161;48.174;11.756;2023-04-24T12:59:44;14.70;69.60
10233;DHT22;5161;48.174;11.756;2023-04-24T13:02:11;14.70;68.30
10233;DHT22;5161;48.174;11.756;2023-04-24T13:04:37;14.60;67.10
10233;DHT22;5161;48.174;11.756;2023-04-24T13:07:02;14.50;65.50
10233;DHT22;5161;48.174;11.756;2023-04-24T13:09:29;14.50;66.00
10233;DHT22;5161;48.174;11.756;2023-04-24T13:11:55;14.40;66.20
10233;DHT22;5161;48.174;11.756;2023-04-24T13:14:22;14.40;65.50
10233;DHT22;5161;48.174;11.756;2023-04-24T13:16:48;14.40;64.90
10233;DHT22;5161;48.174;11.756;2023-04-24T13:19:14;14.10;63.30
10233;DHT22;5161;48.174;11.756;2023-04-24T13:21:40;14.00;64.10
10233;DHT22;5161;48.174;11.756;2023-04-24T13:24:06;13.90;63.70
10233;DHT22;5161;48.174;11.756;2023-04-24T13:26:33;14.00;65.00
10233;DHT22;5161;48.174;11.756;2023-04-24T13:28:58;13.90;64.30
10233;DHT22;5161;48.174;11.756;2023-04-24T13:31:24;13.80;65.40
10233;DHT22;5161;48.174;11.756;2023-04-24T13:33:49;13.80;65.60
10233;DHT22;5161;48.174;11.756;2023-04-24T13:36:15;13.80;66.00
10233;DHT22;5161;48.174;11.756;2023-04-24T13:38:43;13.80;66.80
10233;DHT22;5161;48.174;11.756;2023-04-24T13:41:09;13.90;66.90
10233;DHT22;5161;48.174;11.756;2023-04-24T13:43:35;14.10;67.90
10233;DHT22;5161;48.174;11.756;2023-04-24T13:46:01;14.30;66.40
10233;DHT22;5161;48.174;11.756;2023-04-24T13:48:28;14.50;67.00
10233;DHT22;5161;48.174;11.756;2023-04-24T13:50:54;14.80;66.60
10233;DHT22;5161;48.174;11.756;2023-04-24T13:53:19;15.10;66.80
10233;DHT22;5161;48.174;11.756;2023-04-24T13:55:45;15.40;65.00
10233;DHT22;5161;48.174;11.756;2023-04-24T13:58:11;15.20;64.30
10233;DHT22;5161;48.174;11.756;2023-04-24T14:00:36;15.10;64.60
10233;DHT22;5161;48.174;11.756;2023-04-24T14:03:02;15.00;63.00
10233;DHT22;5161;48.174;11.756;2023-04-24T14:05:27;14.90;64.00
10233;DHT22;5161;48.174;11.756;2023-04-24T14:07:53;14.70;62.70
10233;DHT22;5161;48.174;11.756;2023-04-24T14:10:18;14.70;63.60
10233;DHT22;5161;48.174;11.756;2023-04-24T14:12:44;14.70;63.60
10233;DHT22;5161;48.174;11.756;2023-04-24T14:15:10;14.80;62.40
10233;DHT22;5161;48.174;11.756;2023-04-24T14:17:37;14.90;62.60
10233;DHT22;5161;48.174;11.756;2023-04-24T14:20:03;15.00;60.50
10233;DHT22;5161;48.174;11.756;2023-04-24T14:22:29;14.90;61.70
10233;DHT22;5161;48.174;11.756;2023-04-24T14:24:55;14.70;60.90
10233;DHT22;5161;48.174;11.756;2023-04-24T14:27:21;14.70;61.60
10233;DHT22;5161;48.174;11.756;2023-04-24T14:29:46;14.70;59.90
10233;DHT22;5161;48.174;11.756;2023-04-24T14:32:12;14.60;61.00
10233;DHT22;5161;48.174;11.756;2023-04-24T14:34:40;14.50;61.40
10233;DHT22;5161;48.174;11.756;2023-04-24T14:37:05;14.50;61.40
10233;DHT22;5161;48.174;11.756;2023-04-24T14:39:31;14.40;60.80
10233;DHT22;5161;48.174;11.756;2023-04-24T14:41:56;14.50;60.60
10233;DHT22;5161;48.174;11.756;2023-04-24T14:44:22;14.50;59.00
10233;DHT22;5161;48.174;11.756;2023-04-24T14:46:48;14.40;60.10
10233;DHT22;5161;48.174;11.756;2023-04-24T14:49:14;14.50;60.30
10233;DHT22;5161;48.174;11.756;2023-04-24T14:51:40;14.50;59.00
10233;DHT22;5161;48.174;11.756;2023-04-24T14:54:06;14.50;59.50
10233;DHT22;5161;48.174;11.756;2023-04-24T14:56:32;14.60;59.10
10233;DHT22;5161;48.174;11.756;2023-04-24T14:58:58;14.50;59.50
10233;DHT22;5161;48.174;11.756;2023-04-24T15:01:23;14.50;59.20
10233;DHT22;5161;48.174;11.756;2023-04-24T15:03:49;14.50;60.00
10233;DHT22;5161;48.174;11.756;2023-04-24T15:06:15;14.50;57.90
10233;DHT22;5161;48.174;11.756;2023-04-24T15:08:41;14.30;57.20
10233;DHT22;5161;48.174;11.756;2023-04-24T15:11:07;14.30;57.90
10233;DHT22;5161;48.174;11.756;2023-04-24T15:13:33;14.30;58.20
10233;DHT22;5161;48.174;11.756;2023-04-24T15:15:58;14.40;58.00
10233;DHT22;5161;48.174;11.756;2023-04-24T15:18:24;14.50;57.00
10233;DHT22;5161;48.174;11.756;2023-04-24T15:20:50;14.50;57.90
10233;DHT22;5161;48.174;11.756;2023-04-24T15:23:15;14.50;58.20
10233;DHT22;5161;48.174;11.756;2023-04-24T15:25:41;14.50;57.20
10233;DHT22;5161;48.174;11.756;2023-04-24T15:28:06;14.60;57.90
10233;DHT22;5161;48.174;11.756;2023-04-24T15:30:32;14.60;57.60
10233;DHT22;5161;48.174;11.756;2023-04-24T15:32:59;14.60;56.00
10233;DHT22;5161;48.174;11.756;2023-04-24T15:35:25;14.60;57.00
10233;DHT22;5161;48.174;11.756;2023-04-24T15:37:51;14.50;56.30
10233;DHT22;5161;48.174;11.756;2023-04-24T15:40:17;14.40;56.10
10233;DHT22;5161;48.174;11.756;2023-04-24T15:42:42;14.30;56.00
10233;DHT22;5161;48.174;11.756;2023-04-24T15:45:09;14.30;56.50
10233;DHT22;5161;48.174;11.756;2023-04-24T15:47:35;14.30;57.50